Time,TemperatureF,DewpointF,PressureIn,WindDirection,WindDirectionDegrees,WindSpeedMPH,WindSpeedGustMPH,Humidity,HourlyPrecipIn,Conditions,Clouds,dailyrainin,SoftwareType,DateUTC
2013-01-17 00:02:00,38.0,21.0,30.35,SW,218,0.0,0.0,49,0.00,,,0.00,,2013-01-17 06:02:00,
2013-01-17 00:11:00,38.0,21.0,30.35,SW,218,0.0,0.0,49,0.00,,,0.00,,2013-01-17 06:11:00,
2013-01-17 00:22:00,39.0,21.0,30.35,SW,218,0.0,0.0,48,0.00,,,0.00,,2013-01-17 06:22:00,
2013-01-17 00:32:00,37.0,20.0,30.35,SW,218,0.0,0.0,50,0.00,,,0.00,,2013-01-17 06:32:00,
2013-01-17 00:52:00,36.0,21.0,30.35,SW,218,0.0,0.0,53,0.00,,,0.00,,2013-01-17 06:52:00,
2013-01-17 01:02:00,37.0,21.0,30.35,SW,218,0.0,0.0,52,0.00,,,0.00,,2013-01-17 07:02:00,
2013-01-17 01:22:00,35.0,20.0,30.35,SW,218,0.0,0.0,55,0.00,,,0.00,,2013-01-17 07:22:00,
2013-01-17 01:32:00,35.0,20.0,30.35,SW,218,0.0,0.0,55,0.00,,,0.00,,2013-01-17 07:32:00,
2013-01-17 01:52:00,35.0,20.0,30.35,SW,218,0.0,0.0,54,0.00,,,0.00,,2013-01-17 07:52:00,
2013-01-17 02:02:00,35.0,20.0,30.35,SW,218,0.0,0.0,54,0.00,,,0.00,,2013-01-17 08:02:00,
2013-01-17 02:22:00,34.0,19.0,30.35,SW,218,0.0,0.0,54,0.00,,,0.00,,2013-01-17 08:22:00,
2013-01-17 02:32:00,35.0,20.0,30.35,North,5,0.0,1.0,55,0.00,,,0.00,,2013-01-17 08:32:00,
2013-01-17 02:43:00,35.0,20.0,30.35,North,5,0.0,1.0,55,0.00,,,0.00,,2013-01-17 08:43:00,
2013-01-17 02:52:00,33.0,20.0,30.35,WNW,284,0.0,1.0,58,0.00,,,0.00,,2013-01-17 08:52:00,
2013-01-17 03:02:00,33.0,19.0,30.35,WNW,284,0.0,0.0,57,0.00,,,0.00,,2013-01-17 09:02:00,
2013-01-17 03:22:00,35.0,20.0,30.36,SW,226,1.0,2.0,55,0.00,,,0.00,,2013-01-17 09:22:00,
2013-01-17 03:32:00,33.0,19.0,30.36,SW,223,0.0,1.0,57,0.00,,,0.00,,2013-01-17 09:32:00,
2013-01-17 03:42:00,33.0,19.0,30.36,SW,223,0.0,1.0,57,0.00,,,0.00,,2013-01-17 09:42:00,
2013-01-17 03:52:00,34.0,20.0,30.35,SW,223,0.0,0.0,56,0.00,,,0.00,,2013-01-17 09:52:00,
2013-01-17 04:02:00,32.0,19.0,30.36,SW,223,0.0,0.0,58,0.00,,,0.00,,2013-01-17 10:02:00,
2013-01-17 04:11:00,32.0,19.0,30.36,SW,223,0.0,0.0,58,0.00,,,0.00,,2013-01-17 10:11:00,
2013-01-17 04:22:00,31.0,20.0,30.36,SW,222,0.0,1.0,62,0.00,,,0.00,,2013-01-17 10:22:00,
2013-01-17 04:32:00,31.0,19.0,30.36,SW,222,0.0,0.0,60,0.00,,,0.00,,2013-01-17 10:32:00,
2013-01-17 04:52:00,31.0,19.0,30.36,SW,226,0.0,0.0,61,0.00,,,0.00,,2013-01-17 10:52:00,
2013-01-17 05:02:00,31.0,20.0,30.36,SW,221,0.0,1.0,62,0.00,,,0.00,,2013-01-17 11:02:00,
2013-01-17 05:11:00,31.0,20.0,30.36,SW,221,0.0,1.0,62,0.00,,,0.00,,2013-01-17 11:11:00,
2013-01-17 05:22:00,30.0,19.0,30.35,NW,315,0.0,2.0,64,0.00,,,0.00,,2013-01-17 11:22:00,
2013-01-17 05:32:00,30.0,19.0,30.35,SSE,167,0.0,2.0,62,0.00,,,0.00,,2013-01-17 11:32:00,
2013-01-17 05:53:00,30.0,19.0,30.35,SSE,148,0.0,1.0,64,0.00,,,0.00,,2013-01-17 11:53:00,
2013-01-17 06:02:00,31.0,19.0,30.35,South,180,0.0,1.0,61,0.00,,,0.00,,2013-01-17 12:02:00,
2013-01-17 06:12:00,31.0,19.0,30.35,South,180,0.0,1.0,61,0.00,,,0.00,,2013-01-17 12:12:00,
2013-01-17 06:22:00,31.0,19.0,30.35,South,180,0.0,1.0,60,0.00,,,0.00,,2013-01-17 12:22:00,
2013-01-17 06:32:00,30.0,18.0,30.35,SSW,200,0.0,2.0,60,0.00,,,0.00,,2013-01-17 12:32:00,
2013-01-17 06:42:00,30.0,18.0,30.35,SSW,200,0.0,2.0,60,0.00,,,0.00,,2013-01-17 12:42:00,
2013-01-17 06:53:00,32.0,19.0,30.35,SE,134,0.0,2.0,58,0.00,,,0.00,,2013-01-17 12:53:00,
2013-01-17 07:02:00,31.0,18.0,30.35,SW,226,0.0,1.0,59,0.00,,,0.00,,2013-01-17 13:02:00,
2013-01-17 07:12:00,31.0,18.0,30.35,SW,226,0.0,1.0,59,0.00,,,0.00,,2013-01-17 13:12:00,
2013-01-17 07:22:00,31.0,18.0,30.35,SSW,200,0.0,1.0,57,0.00,,,0.00,,2013-01-17 13:22:00,
2013-01-17 07:33:00,31.0,18.0,30.35,SW,219,0.0,1.0,59,0.00,,,0.00,,2013-01-17 13:33:00,
2013-01-17 07:42:00,31.0,18.0,30.35,SW,219,0.0,1.0,59,0.00,,,0.00,,2013-01-17 13:42:00,
2013-01-17 07:53:00,30.0,18.0,30.36,SW,219,0.0,0.0,61,0.00,,,0.00,,2013-01-17 13:53:00,
2013-01-17 08:02:00,30.0,17.0,30.36,SW,219,0.0,1.0,59,0.00,,,0.00,,2013-01-17 14:02:00,
2013-01-17 08:12:00,30.0,17.0,30.36,SW,219,0.0,1.0,59,0.00,,,0.00,,2013-01-17 14:12:00,
2013-01-17 08:23:00,29.0,18.0,30.37,SW,218,0.0,0.0,63,0.00,,,0.00,,2013-01-17 14:23:00,
2013-01-17 08:32:00,30.0,19.0,30.37,WSW,251,0.0,2.0,62,0.00,,,0.00,,2013-01-17 14:32:00,
2013-01-17 08:42:00,30.0,19.0,30.37,WSW,251,0.0,2.0,62,0.00,,,0.00,,2013-01-17 14:42:00,
2013-01-17 08:53:00,29.0,18.0,30.38,WSW,248,0.0,1.0,63,0.00,,,0.00,,2013-01-17 14:53:00,
2013-01-17 09:02:00,31.0,18.0,30.38,SW,214,0.0,2.0,58,0.00,,,0.00,,2013-01-17 15:02:00,
2013-01-17 09:12:00,31.0,18.0,30.38,SW,214,0.0,2.0,58,0.00,,,0.00,,2013-01-17 15:12:00,
2013-01-17 09:22:00,32.0,19.0,30.38,SW,236,1.0,2.0,57,0.00,,,0.00,,2013-01-17 15:22:00,
2013-01-17 09:33:00,33.0,18.0,30.39,West,259,0.0,1.0,54,0.00,,,0.00,,2013-01-17 15:33:00,
2013-01-17 09:43:00,33.0,18.0,30.39,West,259,0.0,1.0,54,0.00,,,0.00,,2013-01-17 15:43:00,
2013-01-17 09:53:00,34.0,18.0,30.39,WSW,257,0.0,1.0,52,0.00,,,0.00,,2013-01-17 15:53:00,
2013-01-17 10:02:00,35.0,19.0,30.40,SSE,166,0.0,2.0,51,0.00,,,0.00,,2013-01-17 16:02:00,
2013-01-17 10:12:00,35.0,19.0,30.40,SSE,166,0.0,2.0,51,0.00,,,0.00,,2013-01-17 16:12:00,
2013-01-17 10:22:00,39.0,18.0,30.40,SSE,161,0.0,1.0,43,0.00,,,0.00,,2013-01-17 16:22:00,
2013-01-17 10:33:00,43.0,18.0,30.40,ENE,76,0.0,2.0,36,0.00,,,0.00,,2013-01-17 16:33:00,
2013-01-17 10:43:00,43.0,18.0,30.40,ENE,76,0.0,2.0,36,0.00,,,0.00,,2013-01-17 16:43:00,
2013-01-17 10:53:00,45.0,18.0,30.40,ESE,105,0.0,2.0,34,0.00,,,0.00,,2013-01-17 16:53:00,
2013-01-17 11:02:00,46.0,16.0,30.41,ENE,77,1.0,3.0,29,0.00,,,0.00,,2013-01-17 17:02:00,
2013-01-17 11:12:00,46.0,16.0,30.41,ENE,77,1.0,3.0,29,0.00,,,0.00,,2013-01-17 17:12:00,
2013-01-17 11:22:00,47.0,16.0,30.41,SSE,155,1.0,3.0,29,0.00,,,0.00,,2013-01-17 17:22:00,
2013-01-17 11:32:00,47.0,15.0,30.41,North,10,0.0,1.0,27,0.00,,,0.00,,2013-01-17 17:32:00,
2013-01-17 11:43:00,47.0,15.0,30.41,North,10,0.0,1.0,27,0.00,,,0.00,,2013-01-17 17:43:00,
2013-01-17 11:53:00,48.0,16.0,30.41,East,79,1.0,4.0,27,0.00,,,0.00,,2013-01-17 17:53:00,
2013-01-17 12:03:00,48.0,16.0,30.40,SE,125,0.0,2.0,27,0.00,,,0.00,,2013-01-17 18:03:00,
2013-01-17 12:12:00,48.0,16.0,30.40,SE,125,0.0,2.0,27,0.00,,,0.00,,2013-01-17 18:12:00,
2013-01-17 12:22:00,49.0,15.0,30.40,SE,139,0.0,3.0,25,0.00,,,0.00,,2013-01-17 18:22:00,
2013-01-17 12:33:00,50.0,16.0,30.39,SSE,163,1.0,3.0,26,0.00,,,0.00,,2013-01-17 18:33:00,
2013-01-17 12:43:00,50.0,16.0,30.39,SSE,163,1.0,3.0,26,0.00,,,0.00,,2013-01-17 18:43:00,
2013-01-17 12:53:00,51.0,16.0,30.38,SE,131,1.0,3.0,24,0.00,,,0.00,,2013-01-17 18:53:00,
2013-01-17 13:02:00,51.0,16.0,30.37,ESE,103,0.0,2.0,25,0.00,,,0.00,,2013-01-17 19:02:00,
2013-01-17 13:12:00,51.0,16.0,30.37,ESE,103,0.0,2.0,25,0.00,,,0.00,,2013-01-17 19:12:00,
2013-01-17 13:22:00,53.0,16.0,30.36,South,169,1.0,4.0,23,0.00,,,0.00,,2013-01-17 19:22:00,
2013-01-17 13:32:00,52.0,15.0,30.35,North,5,1.0,3.0,23,0.00,,,0.00,,2013-01-17 19:32:00,
2013-01-17 13:42:00,52.0,15.0,30.35,North,5,1.0,3.0,23,0.00,,,0.00,,2013-01-17 19:42:00,
2013-01-17 13:53:00,53.0,16.0,30.34,SW,216,1.0,2.0,23,0.00,,,0.00,,2013-01-17 19:53:00,
2013-01-17 14:02:00,54.0,15.0,30.33,SW,228,2.0,3.0,21,0.00,,,0.00,,2013-01-17 20:02:00,
2013-01-17 14:12:00,54.0,15.0,30.33,SW,228,2.0,3.0,21,0.00,,,0.00,,2013-01-17 20:12:00,
2013-01-17 14:22:00,55.0,16.0,30.32,WSW,238,1.0,3.0,21,0.00,,,0.00,,2013-01-17 20:22:00,
2013-01-17 14:33:00,55.0,16.0,30.31,SSE,155,1.0,2.0,21,0.00,,,0.00,,2013-01-17 20:33:00,
2013-01-17 14:43:00,55.0,16.0,30.31,SSE,155,1.0,2.0,21,0.00,,,0.00,,2013-01-17 20:43:00,
2013-01-17 14:53:00,55.0,16.0,30.30,South,182,0.0,4.0,21,0.00,,,0.00,,2013-01-17 20:53:00,
2013-01-17 15:02:00,57.0,14.0,30.30,SE,145,0.0,4.0,18,0.00,,,0.00,,2013-01-17 21:02:00,
2013-01-17 15:12:00,57.0,14.0,30.30,SE,145,0.0,4.0,18,0.00,,,0.00,,2013-01-17 21:12:00,
2013-01-17 15:22:00,56.0,14.0,30.29,SSE,148,2.0,5.0,19,0.00,,,0.00,,2013-01-17 21:22:00,
2013-01-17 15:33:00,57.0,14.0,30.28,NE,53,1.0,7.0,18,0.00,,,0.00,,2013-01-17 21:33:00,
2013-01-17 15:42:00,57.0,14.0,30.28,NE,53,1.0,7.0,18,0.00,,,0.00,,2013-01-17 21:42:00,
2013-01-17 15:53:00,57.0,14.0,30.28,NE,45,1.0,3.0,18,0.00,,,0.00,,2013-01-17 21:53:00,
2013-01-17 16:02:00,58.0,15.0,30.27,SE,136,1.0,3.0,18,0.00,,,0.00,,2013-01-17 22:02:00,
2013-01-17 16:12:00,58.0,15.0,30.27,SE,136,1.0,3.0,18,0.00,,,0.00,,2013-01-17 22:12:00,
2013-01-17 16:22:00,59.0,14.0,30.27,WSW,240,1.0,3.0,17,0.00,,,0.00,,2013-01-17 22:22:00,
2013-01-17 16:32:00,59.0,14.0,30.26,SSE,150,1.0,4.0,17,0.00,,,0.00,,2013-01-17 22:32:00,
2013-01-17 16:42:00,59.0,14.0,30.26,SSE,150,1.0,4.0,17,0.00,,,0.00,,2013-01-17 22:42:00,
2013-01-17 16:52:00,59.0,14.0,30.26,SSW,212,1.0,3.0,17,0.00,,,0.00,,2013-01-17 22:52:00,
2013-01-17 17:02:00,60.0,14.0,30.26,SW,229,0.0,3.0,16,0.00,,,0.00,,2013-01-17 23:02:00,
2013-01-17 17:12:00,60.0,14.0,30.26,SW,229,0.0,3.0,16,0.00,,,0.00,,2013-01-17 23:12:00,
2013-01-17 17:22:00,60.0,14.0,30.26,SW,229,0.0,3.0,16,0.00,,,0.00,,2013-01-17 23:22:00,
2013-01-17 17:32:00,60.0,14.0,30.26,SW,229,0.0,3.0,16,0.00,,,0.00,,2013-01-17 23:32:00,
2013-01-17 17:42:00,60.0,14.0,30.26,SW,229,0.0,3.0,16,0.00,,,0.00,,2013-01-17 23:42:00,
2013-01-17 20:53:00,47.0,16.0,30.27,SW,223,0.0,0.0,29,0.00,,,0.00,,2013-01-18 02:53:00,
2013-01-17 21:02:00,46.0,16.0,30.27,SW,223,0.0,0.0,29,0.00,,,0.00,,2013-01-18 03:02:00,
2013-01-17 21:22:00,46.0,16.0,30.27,SW,223,0.0,0.0,29,0.00,,,0.00,,2013-01-18 03:22:00,
2013-01-17 21:32:00,46.0,16.0,30.26,SW,223,0.0,0.0,30,0.00,,,0.00,,2013-01-18 03:32:00,
2013-01-17 21:42:00,46.0,16.0,30.26,SW,223,0.0,0.0,30,0.00,,,0.00,,2013-01-18 03:42:00,
2013-01-17 21:52:00,44.0,17.0,30.26,SSE,163,0.0,0.0,34,0.00,,,0.00,,2013-01-18 03:52:00,
2013-01-17 22:02:00,43.0,17.0,30.27,SSE,163,0.0,0.0,34,0.00,,,0.00,,2013-01-18 04:02:00,
2013-01-17 22:22:00,41.0,17.0,30.26,ESE,115,0.0,0.0,38,0.00,,,0.00,,2013-01-18 04:22:00,
2013-01-17 22:32:00,41.0,18.0,30.27,ESE,110,0.0,1.0,39,0.00,,,0.00,,2013-01-18 04:32:00,
2013-01-17 22:53:00,40.0,18.0,30.27,SSW,211,0.0,2.0,40,0.00,,,0.00,,2013-01-18 04:53:00,
2013-01-17 23:03:00,39.0,17.0,30.27,SSW,211,0.0,1.0,41,0.00,,,0.00,,2013-01-18 05:03:00,
2013-01-17 23:32:00,38.0,18.0,30.28,South,175,0.0,0.0,44,0.00,,,0.00,,2013-01-18 05:32:00,
2013-01-17 23:53:00,37.0,17.0,30.27,South,175,0.0,0.0,44,0.00,,,0.00,,2013-01-18 05:53:00,